createdAt,value
2019-05-23T00:00:44.560Z,0.00
2019-05-23T00:01:44.827Z,0.00
2019-05-23T00:02:44.626Z,0.00
2019-05-23T00:03:44.492Z,0.00
2019-05-23T00:04:44.394Z,0.00
2019-05-23T00:05:44.352Z,0.00
2019-05-23T00:06:44.553Z,0.00
2019-05-23T00:07:44.407Z,0.00
2019-05-23T00:08:44.835Z,0.00
2019-05-23T00:09:45.536Z,0.00
2019-05-23T00:10:44.550Z,0.00
2019-05-23T00:11:44.362Z,0.00
2019-05-23T00:12:44.377Z,0.00
2019-05-23T00:13:44.781Z,0.00
2019-05-23T00:14:44.373Z,0.00
2019-05-23T00:15:44.726Z,0.00
2019-05-23T00:16:44.401Z,0.00
2019-05-23T00:17:44.235Z,0.00
2019-05-23T00:18:44.229Z,0.00
2019-05-23T00:19:45.313Z,0.00
2019-05-23T00:20:44.763Z,0.00
2019-05-23T00:21:44.317Z,0.00
2019-05-23T00:22:44.433Z,0.00
2019-05-23T00:23:46.039Z,0.00
2019-05-23T00:24:44.182Z,0.00
2019-05-23T00:25:44.232Z,0.00
2019-05-23T00:26:44.125Z,0.00
2019-05-23T00:27:44.112Z,0.00
2019-05-23T00:28:44.195Z,0.00
2019-05-23T00:29:44.356Z,0.00
2019-05-23T00:30:44.073Z,0.00
2019-05-23T00:31:44.066Z,0.00
2019-05-23T00:32:44.196Z,0.00
2019-05-23T00:33:44.407Z,0.00
2019-05-23T00:34:44.101Z,0.00
2019-05-23T00:35:44.084Z,0.00
2019-05-23T00:36:44.543Z,0.00
2019-05-23T00:37:44.095Z,0.00
2019-05-23T00:38:44.334Z,0.00
2019-05-23T00:39:44.920Z,0.00
2019-05-23T00:40:44.809Z,0.00
2019-05-23T00:41:44.765Z,0.00
2019-05-23T00:42:44.042Z,0.00
2019-05-23T00:43:44.759Z,0.00
2019-05-23T00:44:44.085Z,0.00
2019-05-23T00:45:44.076Z,0.00
2019-05-23T00:46:44.028Z,0.00
2019-05-23T00:47:44.109Z,0.00
2019-05-23T00:48:45.097Z,0.00
2019-05-23T00:49:44.750Z,0.00
2019-05-23T00:50:43.862Z,0.00
2019-05-23T00:51:43.845Z,0.00
2019-05-23T00:52:43.836Z,0.00
2019-05-23T00:53:43.831Z,0.00
2019-05-23T00:54:43.816Z,0.00
2019-05-23T00:55:43.816Z,0.00
2019-05-23T00:56:43.781Z,0.00
2019-05-23T00:57:43.772Z,0.00
2019-05-23T00:58:43.797Z,0.00
2019-05-23T00:59:43.759Z,0.00
2019-05-23T01:00:43.743Z,0.00
2019-05-23T01:01:43.737Z,0.00
2019-05-23T01:02:43.716Z,0.00
2019-05-23T01:03:43.719Z,0.00
2019-05-23T01:04:43.762Z,0.00
2019-05-23T01:05:43.687Z,0.00
2019-05-23T01:06:43.672Z,0.00
2019-05-23T01:07:43.672Z,0.00
2019-05-23T01:08:43.721Z,0.00
2019-05-23T01:09:43.699Z,0.00
2019-05-23T01:10:43.672Z,0.00
2019-05-23T01:11:43.628Z,0.00
2019-05-23T01:12:43.613Z,0.00
2019-05-23T01:13:43.599Z,0.00
2019-05-23T01:14:43.640Z,0.00
2019-05-23T01:15:43.587Z,0.00
2019-05-23T01:16:43.585Z,0.00
2019-05-23T01:17:43.590Z,0.00
2019-05-23T01:18:43.540Z,0.00
2019-05-23T01:19:43.550Z,0.00
2019-05-23T01:20:43.526Z,0.00
2019-05-23T01:21:43.509Z,0.00
2019-05-23T01:22:43.517Z,0.00
2019-05-23T01:23:43.525Z,0.00
2019-05-23T01:24:43.498Z,0.00
2019-05-23T01:25:43.463Z,0.00
2019-05-23T01:26:43.453Z,0.00
2019-05-23T01:27:43.460Z,0.00
2019-05-23T01:28:43.437Z,0.00
2019-05-23T01:29:43.435Z,0.00
2019-05-23T01:30:43.459Z,0.00
2019-05-23T01:31:43.415Z,0.00
2019-05-23T01:32:43.388Z,0.00
2019-05-23T01:33:43.414Z,0.00
2019-05-23T01:34:43.396Z,0.00
2019-05-23T01:35:43.365Z,0.00
2019-05-23T01:36:43.348Z,0.00
2019-05-23T01:37:43.383Z,0.00
2019-05-23T01:38:43.341Z,0.00
2019-05-23T01:39:43.323Z,0.00
2019-05-23T01:40:43.324Z,0.00
2019-05-23T01:41:43.290Z,0.00
2019-05-23T01:42:43.285Z,0.00
2019-05-23T01:43:43.289Z,0.00
2019-05-23T01:44:43.267Z,0.00
2019-05-23T01:45:43.246Z,0.00
2019-05-23T01:46:43.235Z,0.00
2019-05-23T01:47:43.225Z,0.00
2019-05-23T01:48:43.218Z,0.00
2019-05-23T01:49:43.249Z,0.00
2019-05-23T01:50:43.222Z,0.00
2019-05-23T01:51:43.189Z,0.00
2019-05-23T01:52:43.171Z,0.00
2019-05-23T01:53:43.157Z,0.00
2019-05-23T01:54:43.147Z,0.00
2019-05-23T01:55:43.153Z,0.00
2019-05-23T01:56:43.129Z,0.00
2019-05-23T01:57:43.130Z,0.00
2019-05-23T01:58:43.103Z,0.00
2019-05-23T01:59:43.098Z,0.00
2019-05-23T02:00:43.092Z,0.00
2019-05-23T02:01:43.104Z,0.00
2019-05-23T02:02:43.060Z,0.00
2019-05-23T02:03:43.060Z,0.00
2019-05-23T02:04:43.052Z,0.00
2019-05-23T02:05:43.039Z,0.00
2019-05-23T02:06:43.036Z,0.00
2019-05-23T02:07:43.005Z,0.00
2019-05-23T02:08:42.998Z,0.00
2019-05-23T02:09:42.984Z,0.00
2019-05-23T02:10:42.994Z,0.00
2019-05-23T02:11:43.038Z,0.00
2019-05-23T02:12:42.963Z,0.00
2019-05-23T02:13:42.971Z,0.00
2019-05-23T02:14:42.930Z,0.00
2019-05-23T02:15:42.935Z,0.00
2019-05-23T02:16:42.918Z,0.00
2019-05-23T02:17:42.899Z,0.00
2019-05-23T02:18:42.888Z,0.00
2019-05-23T02:19:42.883Z,0.00
2019-05-23T02:20:42.895Z,0.00
2019-05-23T02:21:42.853Z,0.00
2019-05-23T02:22:42.843Z,0.00
2019-05-23T02:23:42.840Z,0.00
2019-05-23T02:24:42.837Z,0.00
2019-05-23T02:25:42.960Z,0.00
2019-05-23T02:26:42.815Z,0.00
2019-05-23T02:27:42.789Z,0.00
2019-05-23T02:28:42.777Z,0.00
2019-05-23T02:29:42.766Z,0.00
2019-05-23T02:30:42.773Z,0.00
2019-05-23T02:31:42.750Z,0.00
2019-05-23T02:32:42.742Z,0.00
2019-05-23T02:33:42.747Z,0.00
2019-05-23T02:34:42.713Z,0.00
2019-05-23T02:35:42.712Z,0.00
2019-05-23T02:36:42.694Z,0.00
2019-05-23T02:37:42.681Z,0.00
2019-05-23T02:38:42.679Z,0.00
2019-05-23T02:39:42.668Z,0.00
2019-05-23T02:40:42.658Z,0.00
2019-05-23T02:41:42.638Z,0.00
2019-05-23T02:42:42.628Z,0.00
2019-05-23T02:43:42.631Z,0.00
2019-05-23T02:44:42.606Z,0.00
2019-05-23T02:45:42.636Z,0.00
2019-05-23T02:46:42.599Z,0.00
2019-05-23T02:47:42.572Z,0.00
2019-05-23T02:48:42.563Z,0.00
2019-05-23T02:49:42.555Z,0.00
2019-05-23T02:50:42.561Z,0.00
2019-05-23T02:51:42.529Z,0.00
2019-05-23T02:52:42.533Z,0.00
2019-05-23T02:53:42.542Z,0.00
2019-05-23T02:54:42.588Z,0.00
2019-05-23T02:55:42.494Z,0.00
2019-05-23T02:56:42.503Z,0.00
2019-05-23T02:57:42.514Z,0.00
2019-05-23T02:58:42.476Z,0.00
2019-05-23T02:59:42.508Z,0.00
2019-05-23T03:00:53.634Z,0.00
2019-05-23T03:01:43.451Z,4.00
2019-05-23T03:02:42.412Z,4.00
2019-05-23T03:03:42.403Z,4.00
2019-05-23T03:04:42.409Z,0.00
2019-05-23T03:05:42.378Z,4.00
2019-05-23T03:06:42.380Z,4.00
2019-05-23T03:07:42.365Z,4.00
2019-05-23T03:08:42.353Z,4.00
2019-05-23T03:09:42.334Z,8.00
2019-05-23T03:10:42.327Z,4.00
2019-05-23T03:11:42.357Z,8.00
2019-05-23T03:12:42.320Z,8.00
2019-05-23T03:13:42.290Z,12.00
2019-05-23T03:14:42.279Z,12.00
2019-05-23T03:15:42.268Z,12.00
2019-05-23T03:16:42.269Z,16.00
2019-05-23T03:17:42.254Z,16.00
2019-05-23T03:18:42.271Z,20.00
2019-05-23T03:19:42.244Z,24.00
2019-05-23T03:20:42.214Z,28.00
2019-05-23T03:21:42.214Z,32.00
2019-05-23T03:22:42.199Z,40.00
2019-05-23T03:23:42.185Z,44.00
2019-05-23T03:24:42.171Z,48.00
2019-05-23T03:25:42.181Z,56.00
2019-05-23T03:26:42.179Z,64.00
2019-05-23T03:27:42.182Z,80.00
2019-05-23T03:28:49.164Z,88.00
2019-05-23T03:29:42.118Z,100.00
2019-05-23T03:30:42.110Z,116.00
2019-05-23T03:31:42.116Z,132.00
2019-05-23T03:32:42.089Z,148.00
2019-05-23T03:33:42.085Z,164.00
2019-05-23T03:34:42.069Z,180.00
2019-05-23T03:35:42.057Z,200.00
2019-05-23T03:36:42.061Z,216.00
2019-05-23T03:37:42.038Z,236.00
2019-05-23T03:38:42.022Z,260.00
2019-05-23T03:39:42.011Z,280.00
2019-05-23T03:40:42.010Z,296.00
2019-05-23T03:41:42.021Z,320.00
2019-05-23T03:42:41.997Z,340.00
2019-05-23T03:43:41.966Z,368.00
2019-05-23T03:44:41.958Z,396.00
2019-05-23T03:45:41.966Z,432.00
2019-05-23T03:46:41.948Z,472.00
2019-05-23T03:47:41.929Z,508.00
2019-05-23T03:48:41.926Z,548.00
2019-05-23T03:49:41.907Z,592.00
2019-05-23T03:50:41.893Z,636.00
2019-05-23T03:51:41.930Z,688.00
2019-05-23T03:52:41.880Z,740.00
2019-05-23T03:53:41.883Z,792.00
2019-05-23T03:54:41.852Z,844.00
2019-05-23T03:55:41.852Z,896.00
2019-05-23T03:56:41.849Z,956.00
2019-05-23T03:57:41.840Z,1012.00
2019-05-23T03:58:41.813Z,1064.00
2019-05-23T03:59:41.802Z,1128.00
2019-05-23T04:00:41.788Z,1180.00
2019-05-23T04:01:48.199Z,1240.00
2019-05-23T04:02:42.764Z,1296.00
2019-05-23T04:03:41.756Z,1356.00
2019-05-23T04:04:41.741Z,1408.00
2019-05-23T04:05:41.753Z,1460.00
2019-05-23T04:06:41.770Z,1516.00
2019-05-23T04:07:41.707Z,1572.00
2019-05-23T04:08:41.706Z,1624.00
2019-05-23T04:09:41.703Z,1672.00
2019-05-23T04:10:41.691Z,1736.00
2019-05-23T04:11:41.700Z,1784.00
2019-05-23T04:12:41.653Z,1844.00
2019-05-23T04:13:41.652Z,1900.00
2019-05-23T04:14:41.642Z,1960.00
2019-05-23T04:15:41.626Z,2020.00
2019-05-23T04:16:41.613Z,2076.00
2019-05-23T04:17:41.658Z,2128.00
2019-05-23T04:18:41.591Z,2184.00
2019-05-23T04:19:41.584Z,2240.00
2019-05-23T04:20:41.573Z,2300.00
2019-05-23T04:21:41.559Z,2364.00
2019-05-23T04:22:41.560Z,2424.00
2019-05-23T04:23:41.551Z,2484.00
2019-05-23T04:24:41.530Z,2552.00
2019-05-23T04:25:41.515Z,2628.00
2019-05-23T04:26:41.516Z,2704.00
2019-05-23T04:27:41.508Z,2780.00
2019-05-23T04:28:41.483Z,2868.00
2019-05-23T04:29:41.472Z,2960.00
2019-05-23T04:30:41.466Z,3052.00
2019-05-23T04:31:41.451Z,3136.00
2019-05-23T04:32:41.451Z,3220.00
2019-05-23T04:33:41.431Z,3316.00
2019-05-23T04:34:41.416Z,3404.00
2019-05-23T04:35:41.406Z,3500.00
2019-05-23T04:36:41.396Z,3592.00
2019-05-23T04:37:41.397Z,3676.00
2019-05-23T04:38:41.375Z,3756.00
2019-05-23T04:39:41.396Z,3844.00
2019-05-23T04:40:41.356Z,3928.00
2019-05-23T04:41:41.340Z,4012.00
2019-05-23T04:42:41.343Z,4096.00
2019-05-23T04:43:41.347Z,4180.00
2019-05-23T04:44:44.358Z,4260.00
2019-05-23T04:45:41.306Z,4336.00
2019-05-23T04:46:41.288Z,4400.00
2019-05-23T04:47:41.289Z,4460.00
2019-05-23T04:48:41.296Z,4544.00
2019-05-23T04:49:41.258Z,4620.00
2019-05-23T04:50:41.244Z,4692.00
2019-05-23T04:51:41.239Z,4776.00
2019-05-23T04:52:41.237Z,4848.00
2019-05-23T04:53:41.212Z,4908.00
2019-05-23T04:54:41.244Z,4984.00
2019-05-23T04:55:41.282Z,5064.00
2019-05-23T04:56:41.192Z,5140.00
2019-05-23T04:57:41.183Z,5200.00
2019-05-23T04:58:41.163Z,5260.00
2019-05-23T04:59:41.149Z,5348.00
2019-05-23T05:00:41.154Z,5436.00
2019-05-23T05:01:41.127Z,5548.00
2019-05-23T05:02:41.149Z,5836.00
2019-05-23T05:03:41.108Z,5808.00
2019-05-23T05:04:41.095Z,5892.00
2019-05-23T05:05:41.221Z,5960.00
2019-05-23T05:06:41.082Z,6084.00
2019-05-23T05:07:41.073Z,6612.00
2019-05-23T05:08:41.053Z,6568.00
2019-05-23T05:09:41.048Z,6716.00
2019-05-23T05:10:41.028Z,6872.00
2019-05-23T05:11:41.041Z,6664.00
2019-05-23T05:12:41.017Z,6708.00
2019-05-23T05:13:40.996Z,6832.00
2019-05-23T05:14:40.987Z,7040.00
2019-05-23T05:15:41.005Z,7232.00
2019-05-23T05:16:40.962Z,7248.00
2019-05-23T05:17:40.963Z,7272.00
2019-05-23T05:18:40.942Z,7544.00
2019-05-23T05:19:40.929Z,7836.00
2019-05-23T05:20:40.923Z,7664.00
2019-05-23T05:21:40.909Z,7392.00
2019-05-23T05:22:40.910Z,7420.00
2019-05-23T05:23:40.932Z,7456.00
2019-05-23T05:24:40.877Z,7464.00
2019-05-23T05:25:40.864Z,7504.00
2019-05-23T05:26:40.871Z,7744.00
2019-05-23T05:27:40.855Z,7632.00
2019-05-23T05:28:40.833Z,7500.00
2019-05-23T05:29:40.824Z,7580.00
2019-05-23T05:30:40.809Z,7692.00
2019-05-23T05:31:40.806Z,8012.00
2019-05-23T05:32:45.244Z,8236.00
2019-05-23T05:33:40.799Z,8184.00
2019-05-23T05:34:40.771Z,8168.00
2019-05-23T05:35:40.755Z,8056.00
2019-05-23T05:36:40.750Z,8204.00
2019-05-23T05:37:40.748Z,8832.00
2019-05-23T05:38:40.737Z,8840.00
2019-05-23T05:39:40.721Z,9728.00
2019-05-23T05:40:40.704Z,9348.00
2019-05-23T05:41:40.693Z,9940.00
2019-05-23T05:42:40.692Z,10292.00
2019-05-23T05:43:40.700Z,10980.00
2019-05-23T05:44:40.714Z,11016.00
2019-05-23T05:45:40.648Z,10616.00
2019-05-23T05:46:40.639Z,9884.00
2019-05-23T05:47:40.638Z,9992.00
2019-05-23T05:48:40.617Z,10692.00
2019-05-23T05:49:42.284Z,11992.00
2019-05-23T05:50:40.597Z,13036.00
2019-05-23T05:51:40.582Z,13464.00
2019-05-23T05:52:40.583Z,14660.00
2019-05-23T05:53:40.580Z,15232.00
2019-05-23T05:54:40.554Z,15072.00
2019-05-23T05:55:40.542Z,14144.00
2019-05-23T05:56:40.527Z,14624.00
2019-05-23T05:57:40.761Z,15648.00
2019-05-23T05:58:40.504Z,15360.00
2019-05-23T05:59:40.494Z,15488.00
2019-05-23T06:00:40.505Z,14476.00
2019-05-23T06:01:40.473Z,14752.00
2019-05-23T06:02:40.462Z,15584.00
2019-05-23T06:03:40.494Z,16128.00
2019-05-23T06:04:40.439Z,16128.00
2019-05-23T06:05:40.429Z,16960.00
2019-05-23T06:06:40.423Z,17056.00
2019-05-23T06:07:40.424Z,17280.00
2019-05-23T06:08:40.407Z,16448.00
2019-05-23T06:09:40.386Z,16512.00
2019-05-23T06:10:40.373Z,17344.00
2019-05-23T06:11:40.368Z,18528.00
2019-05-23T06:12:40.356Z,18720.00
2019-05-23T06:13:40.376Z,19296.00
2019-05-23T06:14:40.328Z,21088.00
2019-05-23T06:15:40.321Z,22304.00
2019-05-23T06:16:40.310Z,23040.00
2019-05-23T06:17:40.298Z,23296.00
2019-05-23T06:18:40.300Z,23936.00
2019-05-23T06:19:40.338Z,22144.00
2019-05-23T06:20:41.021Z,15968.00
2019-05-23T06:21:40.256Z,15776.00
2019-05-23T06:22:40.243Z,22336.00
2019-05-23T06:23:40.243Z,24448.00
2019-05-23T06:24:48.237Z,13024.00
2019-05-23T06:25:41.210Z,19808.00
2019-05-23T06:26:40.216Z,22624.00
2019-05-23T06:27:40.196Z,16832.00
2019-05-23T06:28:40.191Z,20704.00
2019-05-23T06:29:40.199Z,19616.00
2019-05-23T06:30:40.158Z,18848.00
2019-05-23T06:31:40.144Z,17728.00
2019-05-23T06:32:40.136Z,16352.00
2019-05-23T06:33:40.147Z,15456.00
2019-05-23T06:34:40.112Z,14780.00
2019-05-23T06:35:40.111Z,14312.00
2019-05-23T06:36:40.090Z,13768.00
2019-05-23T06:37:40.089Z,13608.00
2019-05-23T06:38:40.112Z,13376.00
2019-05-23T06:39:40.057Z,13360.00
2019-05-23T06:40:40.053Z,13168.00
2019-05-23T06:41:40.056Z,13204.00
2019-05-23T06:42:40.024Z,13556.00
2019-05-23T06:43:40.012Z,13356.00
2019-05-23T06:44:40.012Z,14072.00
2019-05-23T06:45:39.997Z,14436.00
2019-05-23T06:46:39.993Z,14684.00
2019-05-23T06:47:39.970Z,15680.00
2019-05-23T06:48:45.222Z,16608.00
2019-05-23T06:49:40.960Z,17376.00
2019-05-23T06:50:39.937Z,17472.00
2019-05-23T06:51:39.926Z,14688.00
2019-05-23T06:52:39.914Z,12768.00
2019-05-23T06:53:39.911Z,12580.00
2019-05-23T06:54:39.915Z,12524.00
2019-05-23T06:55:39.884Z,12512.00
2019-05-23T06:56:39.870Z,12412.00
2019-05-23T06:57:39.861Z,12360.00
2019-05-23T06:58:39.848Z,12268.00
2019-05-23T06:59:39.854Z,12212.00
2019-05-23T07:00:39.873Z,12216.00
2019-05-23T07:01:39.816Z,12260.00
2019-05-23T07:02:39.805Z,12340.00
2019-05-23T07:03:42.883Z,12392.00
2019-05-23T07:04:39.823Z,12516.00
2019-05-23T07:05:39.773Z,12728.00
2019-05-23T07:06:39.761Z,12932.00
2019-05-23T07:07:39.767Z,13024.00
2019-05-23T07:08:39.742Z,13116.00
2019-05-23T07:09:39.738Z,13240.00
2019-05-23T07:10:39.716Z,13344.00
2019-05-23T07:11:39.712Z,13400.00
2019-05-23T07:12:39.694Z,13464.00
2019-05-23T07:13:39.706Z,13652.00
2019-05-23T07:14:39.700Z,13780.00
2019-05-23T07:15:39.660Z,14176.00
2019-05-23T07:16:39.649Z,16608.00
2019-05-23T07:17:39.641Z,25120.00
2019-05-23T07:18:39.640Z,34848.00
2019-05-23T07:19:39.658Z,39744.00
2019-05-23T07:20:39.608Z,40224.00
2019-05-23T07:21:39.596Z,40384.00
2019-05-23T07:22:39.593Z,39328.00
2019-05-23T07:23:39.575Z,40928.00
2019-05-23T07:24:55.174Z,41856.00
2019-05-23T07:25:40.598Z,42624.00
2019-05-23T07:26:39.632Z,43136.00
2019-05-23T07:27:39.623Z,44608.00
2019-05-23T07:28:39.586Z,36352.00
2019-05-23T07:29:39.518Z,20960.00
2019-05-23T07:30:39.503Z,27552.00
2019-05-23T07:31:39.498Z,43904.00
2019-05-23T07:32:39.509Z,47136.00
2019-05-23T07:33:39.627Z,48288.00
2019-05-23T07:34:39.481Z,49728.00
2019-05-23T07:35:39.451Z,49440.00
2019-05-23T07:36:39.436Z,50400.00
2019-05-23T07:37:39.423Z,49440.00
2019-05-23T07:38:39.408Z,48448.00
2019-05-23T07:39:39.414Z,50592.00
2019-05-23T07:40:39.444Z,53024.00
2019-05-23T07:41:39.375Z,52512.00
2019-05-23T07:42:39.366Z,52672.00
2019-05-23T07:43:39.356Z,51104.00
2019-05-23T07:44:47.855Z,52608.00
2019-05-23T07:45:40.343Z,55104.00
2019-05-23T07:46:39.354Z,55232.00
2019-05-23T07:47:40.207Z,55904.00
2019-05-23T07:48:39.300Z,56704.00
2019-05-23T07:49:39.293Z,55104.00
2019-05-23T07:50:39.308Z,55296.00
2019-05-23T07:51:39.268Z,57056.00
2019-05-23T07:52:39.549Z,57824.00
2019-05-23T07:53:39.244Z,55168.00
2019-05-23T07:54:39.233Z,53152.00
2019-05-23T07:55:39.252Z,53632.00
2019-05-23T07:56:39.212Z,51104.00
2019-05-23T07:57:39.204Z,45952.00
2019-05-23T07:58:39.194Z,46432.00
2019-05-23T07:59:39.198Z,51648.00
2019-05-23T08:00:39.205Z,58912.00
2019-05-23T08:01:39.203Z,61504.00
2019-05-23T08:02:39.145Z,60704.00
2019-05-23T08:03:39.136Z,41280.00
2019-05-23T08:04:39.142Z,21312.00
2019-05-23T08:05:39.169Z,38560.00
2019-05-23T08:06:39.104Z,57952.00
2019-05-23T08:07:39.092Z,61504.00
2019-05-23T08:08:39.101Z,60640.00
2019-05-23T08:09:39.067Z,59072.00
2019-05-23T08:10:39.071Z,58016.00
2019-05-23T08:11:39.061Z,56832.00
2019-05-23T08:12:39.057Z,55584.00
2019-05-23T08:13:39.030Z,53728.00
2019-05-23T08:14:39.019Z,49152.00
2019-05-23T08:15:39.044Z,47328.00
2019-05-23T08:16:38.993Z,46080.00
2019-05-23T08:17:39.008Z,45216.00
2019-05-23T08:18:38.979Z,47616.00
2019-05-23T08:19:49.041Z,50592.00
2019-05-23T08:20:39.961Z,52480.00
2019-05-23T08:21:38.958Z,54528.00
2019-05-23T08:22:38.936Z,57088.00
2019-05-23T08:23:38.918Z,57952.00
2019-05-23T08:24:38.907Z,60800.00
2019-05-23T08:25:38.905Z,62272.00
2019-05-23T08:26:38.899Z,62368.00
2019-05-23T08:27:38.900Z,62560.00
2019-05-23T08:28:56.692Z,61728.00
2019-05-23T08:29:39.851Z,61088.00
2019-05-23T08:30:38.852Z,58240.00
2019-05-23T08:31:38.863Z,37760.00
2019-05-23T08:32:38.822Z,32224.00
2019-05-23T08:33:38.815Z,51072.00
2019-05-23T08:34:42.115Z,47552.00
2019-05-23T08:35:38.818Z,28864.00
2019-05-23T08:36:38.795Z,23424.00
2019-05-23T08:37:38.800Z,29120.00
2019-05-23T08:38:38.777Z,29408.00
2019-05-23T08:39:38.755Z,38432.00
2019-05-23T08:40:38.775Z,51392.00
2019-05-23T08:41:38.729Z,62240.00
2019-05-23T08:42:38.739Z,62752.00
2019-05-23T08:43:38.716Z,63328.00
2019-05-23T08:44:38.722Z,65888.00
2019-05-23T08:45:38.686Z,64800.00
2019-05-23T08:46:38.693Z,65856.00
2019-05-23T08:47:38.661Z,66144.00
2019-05-23T08:48:38.659Z,68448.00
2019-05-23T08:49:38.647Z,68032.00
2019-05-23T08:50:38.650Z,68288.00
2019-05-23T08:51:38.626Z,65120.00
2019-05-23T08:52:38.606Z,67360.00
2019-05-23T08:53:38.607Z,65792.00
2019-05-23T08:54:38.580Z,67872.00
2019-05-23T08:55:38.576Z,69600.00
2019-05-23T08:56:38.575Z,69888.00
2019-05-23T08:57:38.594Z,71008.00
2019-05-23T08:58:38.548Z,68768.00
2019-05-23T08:59:38.551Z,63936.00
2019-05-23T09:00:38.528Z,37056.00
2019-05-23T09:01:38.526Z,33952.00
2019-05-23T09:02:38.513Z,60928.00
2019-05-23T09:03:38.501Z,69984.00
2019-05-23T09:04:38.482Z,71552.00
2019-05-23T09:05:38.476Z,70720.00
2019-05-23T09:06:38.495Z,73152.00
2019-05-23T09:07:38.464Z,73216.00
2019-05-23T09:08:38.448Z,74624.00
2019-05-23T09:09:38.427Z,74336.00
2019-05-23T09:10:38.443Z,72256.00
2019-05-23T09:11:38.410Z,76416.00
2019-05-23T09:12:38.401Z,77728.00
2019-05-23T09:13:38.402Z,73216.00
2019-05-23T09:14:38.369Z,76576.00
2019-05-23T09:15:38.386Z,76320.00
2019-05-23T09:16:38.361Z,70144.00
2019-05-23T09:17:52.495Z,47008.00
2019-05-23T09:18:39.333Z,24640.00
2019-05-23T09:19:38.315Z,19168.00
2019-05-23T09:20:38.318Z,22208.00
2019-05-23T09:21:38.305Z,51776.00
2019-05-23T09:22:38.283Z,73088.00
2019-05-23T09:23:38.291Z,74464.00
2019-05-23T09:24:38.272Z,78176.00
2019-05-23T09:25:38.261Z,64672.00
2019-05-23T09:26:38.259Z,50464.00
2019-05-23T09:27:38.255Z,46080.00
2019-05-23T09:28:38.221Z,36288.00
2019-05-23T09:29:45.241Z,26464.00
2019-05-23T09:30:38.350Z,21504.00
2019-05-23T09:31:38.197Z,40640.00
2019-05-23T09:32:38.218Z,75488.00
2019-05-23T09:33:38.198Z,87648.00
2019-05-23T09:34:38.155Z,77536.00
2019-05-23T09:35:38.165Z,84736.00
2019-05-23T09:36:38.145Z,82848.00
2019-05-23T09:37:38.126Z,81600.00
2019-05-23T09:38:38.137Z,86688.00
2019-05-23T09:39:38.103Z,81120.00
2019-05-23T09:40:38.107Z,80512.00
2019-05-23T09:41:38.093Z,71456.00
2019-05-23T09:42:38.076Z,39456.00
2019-05-23T09:43:38.062Z,48320.00
2019-05-23T09:44:38.062Z,76928.00
2019-05-23T09:45:38.059Z,84640.00
2019-05-23T09:46:38.054Z,83168.00
2019-05-23T09:47:38.017Z,81824.00
2019-05-23T09:48:38.007Z,82528.00
2019-05-23T09:49:38.043Z,77632.00
2019-05-23T09:50:37.990Z,77856.00
2019-05-23T09:51:38.005Z,65792.00
2019-05-23T09:52:37.980Z,40064.00
2019-05-23T09:53:37.975Z,59296.00
2019-05-23T09:54:37.943Z,75744.00
2019-05-23T09:55:37.937Z,78208.00
2019-05-23T09:56:37.924Z,76416.00
2019-05-23T09:57:37.923Z,75968.00
2019-05-23T09:58:37.901Z,80192.00
2019-05-23T09:59:37.893Z,72288.00
2019-05-23T10:00:37.881Z,63936.00
2019-05-23T10:01:37.875Z,44000.00
2019-05-23T10:02:37.871Z,36544.00
2019-05-23T10:03:37.850Z,27264.00
2019-05-23T10:04:37.846Z,21440.00
2019-05-23T10:05:43.319Z,37536.00
2019-05-23T10:06:38.819Z,57728.00
2019-05-23T10:07:37.826Z,77696.00
2019-05-23T10:08:37.810Z,86720.00
2019-05-23T10:09:37.789Z,88000.00
2019-05-23T10:10:37.776Z,86592.00
2019-05-23T10:11:37.769Z,85056.00
2019-05-23T10:12:37.767Z,83872.00
2019-05-23T10:13:39.559Z,82592.00
2019-05-23T10:14:37.737Z,82272.00
2019-05-23T10:15:37.736Z,80480.00
2019-05-23T10:16:37.715Z,83136.00
2019-05-23T10:17:37.713Z,84896.00
2019-05-23T10:18:37.696Z,81248.00
2019-05-23T10:19:37.685Z,81248.00
2019-05-23T10:20:37.677Z,81088.00
2019-05-23T10:21:37.662Z,82432.00
2019-05-23T10:22:37.676Z,83872.00
2019-05-23T10:23:37.645Z,81952.00
2019-05-23T10:24:37.632Z,78976.00
2019-05-23T10:25:37.624Z,81152.00
2019-05-23T10:26:37.612Z,83424.00
2019-05-23T10:27:37.626Z,82592.00
2019-05-23T10:28:37.599Z,83360.00
2019-05-23T10:29:37.584Z,88320.00
2019-05-23T10:30:37.572Z,89984.00
2019-05-23T10:31:37.561Z,88576.00
2019-05-23T10:32:37.559Z,87840.00
2019-05-23T10:33:37.554Z,87744.00
2019-05-23T10:34:37.541Z,89024.00
2019-05-23T10:35:37.524Z,87488.00
2019-05-23T10:36:37.511Z,85440.00
2019-05-23T10:37:37.501Z,84960.00
2019-05-23T10:38:37.501Z,86880.00
2019-05-23T10:39:37.482Z,87936.00
2019-05-23T10:40:37.548Z,88704.00
2019-05-23T10:41:37.470Z,92192.00
2019-05-23T10:42:37.462Z,90656.00
2019-05-23T10:43:37.454Z,91296.00
2019-05-23T10:44:37.435Z,88000.00
2019-05-23T10:45:37.421Z,82528.00
2019-05-23T10:46:37.412Z,86816.00
2019-05-23T10:47:37.405Z,88224.00
2019-05-23T10:48:37.405Z,88800.00
2019-05-23T10:49:37.382Z,85952.00
2019-05-23T10:50:44.807Z,86112.00
2019-05-23T10:51:38.359Z,89280.00
2019-05-23T10:52:37.355Z,90112.00
2019-05-23T10:53:37.351Z,89728.00
2019-05-23T10:54:37.329Z,92576.00
2019-05-23T10:55:37.327Z,90368.00
2019-05-23T10:56:37.313Z,91776.00
2019-05-23T10:57:37.304Z,91616.00
2019-05-23T10:58:37.308Z,94016.00
2019-05-23T10:59:37.288Z,95232.00
2019-05-23T11:00:37.273Z,94816.00
2019-05-23T11:01:37.263Z,96128.00
2019-05-23T11:02:37.252Z,96992.00
2019-05-23T11:03:37.259Z,98592.00
2019-05-23T11:04:37.234Z,97600.00
2019-05-23T11:05:37.233Z,98816.00
2019-05-23T11:06:37.215Z,98016.00
2019-05-23T11:07:37.207Z,97536.00
2019-05-23T11:08:37.206Z,97760.00
2019-05-23T11:09:38.613Z,98016.00
2019-05-23T11:10:37.178Z,96000.00
2019-05-23T11:11:37.179Z,96288.00
2019-05-23T11:12:37.162Z,99648.00
2019-05-23T11:13:37.178Z,101952.00
2019-05-23T11:14:37.138Z,102240.00
2019-05-23T11:15:37.127Z,103392.00
2019-05-23T11:16:37.117Z,102656.00
2019-05-23T11:17:37.110Z,103616.00
2019-05-23T11:18:37.096Z,102688.00
2019-05-23T11:19:37.204Z,102848.00
2019-05-23T11:20:37.080Z,102272.00
2019-05-23T11:21:37.066Z,96192.00
2019-05-23T11:22:37.057Z,101184.00
2019-05-23T11:23:37.053Z,94752.00
2019-05-23T11:24:37.046Z,86496.00
2019-05-23T11:25:37.029Z,98944.00
2019-05-23T11:26:37.014Z,104928.00
2019-05-23T11:27:37.003Z,107264.00
2019-05-23T11:28:36.995Z,108064.00
2019-05-23T11:29:36.992Z,104576.00
2019-05-23T11:30:36.976Z,105504.00
2019-05-23T11:31:36.965Z,105152.00
2019-05-23T11:32:36.978Z,103552.00
2019-05-23T11:33:36.944Z,102944.00
2019-05-23T11:34:36.942Z,99136.00
2019-05-23T11:35:36.922Z,102656.00
2019-05-23T11:36:37.359Z,102496.00
2019-05-23T11:37:36.904Z,99296.00
2019-05-23T11:38:36.892Z,101984.00
2019-05-23T11:39:42.189Z,102272.00
2019-05-23T11:40:37.871Z,102880.00
2019-05-23T11:41:36.863Z,97088.00
2019-05-23T11:42:36.979Z,101792.00
2019-05-23T11:43:36.841Z,102144.00
2019-05-23T11:44:36.843Z,100928.00
2019-05-23T11:45:45.585Z,102976.00
2019-05-23T11:46:37.809Z,104480.00
2019-05-23T11:47:36.806Z,100992.00
2019-05-23T11:48:36.788Z,100928.00
2019-05-23T11:49:36.790Z,101184.00
2019-05-23T11:50:36.773Z,100448.00
2019-05-23T11:51:36.789Z,103904.00
2019-05-23T11:52:36.963Z,104064.00
2019-05-23T11:53:36.742Z,107168.00
2019-05-23T11:54:36.742Z,104576.00
2019-05-23T11:55:36.720Z,103104.00
2019-05-23T11:56:36.902Z,104768.00
2019-05-23T11:57:37.646Z,103008.00
2019-05-23T11:58:36.697Z,101760.00
2019-05-23T11:59:36.692Z,101216.00
2019-05-23T12:00:36.690Z,101696.00
2019-05-23T12:01:36.665Z,100096.00
2019-05-23T12:02:36.695Z,95808.00
2019-05-23T12:03:36.657Z,96736.00
2019-05-23T12:04:36.662Z,100128.00
2019-05-23T12:05:36.625Z,100800.00
2019-05-23T12:06:53.417Z,101728.00
2019-05-23T12:07:37.604Z,104448.00
2019-05-23T12:08:36.595Z,102016.00
2019-05-23T12:09:36.599Z,102272.00
2019-05-23T12:10:36.577Z,102848.00
2019-05-23T12:11:42.351Z,99968.00